Graham, Alabama
Current Conditions -  °F | °C
As of 6:53 PM on Monday 24 Nov 2014 (Local Time) from KANB Reporting Station
Clear Clear  
Wind Chill: 59°   Ceiling: Unl
Heat Index: 59°   Visibility: 10mi
Dew Point: 43°   Wind: 8mph
Humidity: 55%   Direction: 260°W
Pressure: 29.94"   Gusts: NA
Location:  33.46°N, 85.32°W
Report Text: KANB 250053Z AUTO 26007KT 10SM CLR 15/06 A2994 RMK AO2 SLP137 T01500061
Loading
Personal Weather Stations






























Interactive Weather Map New forecast layout! Learn more

10-Day Weather Forecast

Advertisements
Track Severe Weather on mobile